sensor_id;sensor_type;location;lat;lon;timestamp;temperature;humidity
12166;DHT22;6146;48.128;11.476;2022-10-22T00:02:03;14.70;99.90
12166;DHT22;6146;48.128;11.476;2022-10-22T00:04:31;14.60;99.90
12166;DHT22;6146;48.128;11.476;2022-10-22T00:06:57;14.50;99.90
12166;DHT22;6146;48.128;11.476;2022-10-22T00:09:23;14.60;99.90
12166;DHT22;6146;48.128;11.476;2022-10-22T00:11:48;14.60;99.90
12166;DHT22;6146;48.128;11.476;2022-10-22T00:14:14;14.60;99.90
12166;DHT22;6146;48.128;11.476;2022-10-22T00:16:40;14.60;99.90
12166;DHT22;6146;48.128;11.476;2022-10-22T00:19:06;14.60;99.90
12166;DHT22;6146;48.128;11.476;2022-10-22T00:21:34;14.60;99.90
12166;DHT22;6146;48.128;11.476;2022-10-22T00:23:59;14.50;99.90
12166;DHT22;6146;48.128;11.476;2022-10-22T00:26:25;14.60;99.90
12166;DHT22;6146;48.128;11.476;2022-10-22T00:28:50;14.50;99.90
12166;DHT22;6146;48.128;11.476;2022-10-22T00:31:17;14.50;99.90
12166;DHT22;6146;48.128;11.476;2022-10-22T00:33:45;14.50;99.90
12166;DHT22;6146;48.128;11.476;2022-10-22T00:36:11;14.50;99.90
12166;DHT22;6146;48.128;11.476;2022-10-22T00:38:37;14.40;99.90
12166;DHT22;6146;48.128;11.476;2022-10-22T00:41:02;14.40;99.90
12166;DHT22;6146;48.128;11.476;2022-10-22T00:43:28;14.30;99.90
12166;DHT22;6146;48.128;11.476;2022-10-22T00:45:53;14.30;99.90
12166;DHT22;6146;48.128;11.476;2022-10-22T00:48:24;14.20;99.90
12166;DHT22;6146;48.128;11.476;2022-10-22T00:51:05;14.20;99.90
12166;DHT22;6146;48.128;11.476;2022-10-22T00:53:36;14.20;99.90
12166;DHT22;6146;48.128;11.476;2022-10-22T00:56:02;14.10;99.90
12166;DHT22;6146;48.128;11.476;2022-10-22T00:58:31;14.00;99.90
12166;DHT22;6146;48.128;11.476;2022-10-22T01:00:58;13.90;99.90
12166;DHT22;6146;48.128;11.476;2022-10-22T01:03:24;13.90;99.90
12166;DHT22;6146;48.128;11.476;2022-10-22T01:05:55;13.90;99.90
12166;DHT22;6146;48.128;11.476;2022-10-22T01:11:23;14.00;99.90
12166;DHT22;6146;48.128;11.476;2022-10-22T01:14:03;14.00;99.90
12166;DHT22;6146;48.128;11.476;2022-10-22T01:17:04;14.00;99.90
12166;DHT22;6146;48.128;11.476;2022-10-22T01:24:59;14.10;99.90
12166;DHT22;6146;48.128;11.476;2022-10-22T01:27:34;14.10;99.90
12166;DHT22;6146;48.128;11.476;2022-10-22T01:30:06;14.10;99.90
12166;DHT22;6146;48.128;11.476;2022-10-22T01:32:45;14.20;99.90
12166;DHT22;6146;48.128;11.476;2022-10-22T01:35:16;14.10;99.90
12166;DHT22;6146;48.128;11.476;2022-10-22T01:37:49;14.20;99.90
12166;DHT22;6146;48.128;11.476;2022-10-22T01:40:16;14.10;99.90
12166;DHT22;6146;48.128;11.476;2022-10-22T01:42:56;14.10;99.90
12166;DHT22;6146;48.128;11.476;2022-10-22T01:45:22;14.20;99.90
12166;DHT22;6146;48.128;11.476;2022-10-22T01:47:52;14.10;99.90
12166;DHT22;6146;48.128;11.476;2022-10-22T01:50:45;14.30;99.90
12166;DHT22;6146;48.128;11.476;2022-10-22T01:53:24;14.10;99.90
12166;DHT22;6146;48.128;11.476;2022-10-22T02:07:00;14.10;99.90
12166;DHT22;6146;48.128;11.476;2022-10-22T02:09:27;14.10;99.90
12166;DHT22;6146;48.128;11.476;2022-10-22T02:11:56;14.00;99.90
12166;DHT22;6146;48.128;11.476;2022-10-22T02:14:23;14.00;99.90
12166;DHT22;6146;48.128;11.476;2022-10-22T02:16:50;14.00;99.90
12166;DHT22;6146;48.128;11.476;2022-10-22T02:19:37;14.00;99.90
12166;DHT22;6146;48.128;11.476;2022-10-22T02:22:06;14.00;99.90
12166;DHT22;6146;48.128;11.476;2022-10-22T02:24:32;14.00;99.90
12166;DHT22;6146;48.128;11.476;2022-10-22T02:27:11;14.00;99.90
12166;DHT22;6146;48.128;11.476;2022-10-22T02:30:18;14.00;99.90
12166;DHT22;6146;48.128;11.476;2022-10-22T02:32:59;13.90;99.90
12166;DHT22;6146;48.128;11.476;2022-10-22T02:35:27;14.00;99.90
12166;DHT22;6146;48.128;11.476;2022-10-22T02:37:54;14.00;99.90
12166;DHT22;6146;48.128;11.476;2022-10-22T02:40:21;14.00;99.90
12166;DHT22;6146;48.128;11.476;2022-10-22T02:42:48;13.90;99.90
12166;DHT22;6146;48.128;11.476;2022-10-22T02:45:16;13.90;99.90
12166;DHT22;6146;48.128;11.476;2022-10-22T02:47:41;13.90;99.90
12166;DHT22;6146;48.128;11.476;2022-10-22T02:50:07;13.90;99.90
12166;DHT22;6146;48.128;11.476;2022-10-22T02:52:33;13.90;99.90
12166;DHT22;6146;48.128;11.476;2022-10-22T02:54:58;14.00;99.90
12166;DHT22;6146;48.128;11.476;2022-10-22T02:57:24;14.00;99.90
12166;DHT22;6146;48.128;11.476;2022-10-22T02:59:49;13.90;99.90
12166;DHT22;6146;48.128;11.476;2022-10-22T03:02:15;13.90;99.90
12166;DHT22;6146;48.128;11.476;2022-10-22T03:04:41;14.00;99.90
12166;DHT22;6146;48.128;11.476;2022-10-22T03:07:06;14.00;99.90
12166;DHT22;6146;48.128;11.476;2022-10-22T03:09:32;14.00;99.90
12166;DHT22;6146;48.128;11.476;2022-10-22T03:11:58;14.00;99.90
12166;DHT22;6146;48.128;11.476;2022-10-22T03:14:23;14.00;99.90
12166;DHT22;6146;48.128;11.476;2022-10-22T03:16:49;14.00;99.90
12166;DHT22;6146;48.128;11.476;2022-10-22T03:19:15;14.00;99.90
12166;DHT22;6146;48.128;11.476;2022-10-22T03:22:01;13.90;99.90
12166;DHT22;6146;48.128;11.476;2022-10-22T03:24:33;13.80;99.90
12166;DHT22;6146;48.128;11.476;2022-10-22T03:26:59;13.80;99.90
12166;DHT22;6146;48.128;11.476;2022-10-22T03:29:26;13.70;99.90
12166;DHT22;6146;48.128;11.476;2022-10-22T03:31:53;13.60;99.90
12166;DHT22;6146;48.128;11.476;2022-10-22T03:34:19;13.60;99.90
12166;DHT22;6146;48.128;11.476;2022-10-22T03:36:44;13.50;99.90
12166;DHT22;6146;48.128;11.476;2022-10-22T03:39:15;13.30;99.90
12166;DHT22;6146;48.128;11.476;2022-10-22T03:41:42;13.30;99.90
12166;DHT22;6146;48.128;11.476;2022-10-22T03:44:09;13.30;99.90
12166;DHT22;6146;48.128;11.476;2022-10-22T03:46:35;13.30;99.90
12166;DHT22;6146;48.128;11.476;2022-10-22T03:49:00;13.20;99.90
12166;DHT22;6146;48.128;11.476;2022-10-22T03:51:27;13.20;99.90
12166;DHT22;6146;48.128;11.476;2022-10-22T03:53:53;13.10;99.90
12166;DHT22;6146;48.128;11.476;2022-10-22T03:56:18;13.10;99.90
12166;DHT22;6146;48.128;11.476;2022-10-22T03:58:44;13.10;99.90
12166;DHT22;6146;48.128;11.476;2022-10-22T04:01:11;13.10;99.90
12166;DHT22;6146;48.128;11.476;2022-10-22T04:03:38;13.00;99.90
12166;DHT22;6146;48.128;11.476;2022-10-22T04:06:06;12.90;99.90
12166;DHT22;6146;48.128;11.476;2022-10-22T04:08:32;12.90;99.90
12166;DHT22;6146;48.128;11.476;2022-10-22T04:10:58;12.80;99.90
12166;DHT22;6146;48.128;11.476;2022-10-22T04:13:23;12.90;99.90
12166;DHT22;6146;48.128;11.476;2022-10-22T04:15:49;12.90;99.90
12166;DHT22;6146;48.128;11.476;2022-10-22T04:18:17;12.90;99.90
12166;DHT22;6146;48.128;11.476;2022-10-22T04:20:43;12.80;99.90
12166;DHT22;6146;48.128;11.476;2022-10-22T04:23:08;12.80;99.90
12166;DHT22;6146;48.128;11.476;2022-10-22T04:25:34;12.80;99.90
12166;DHT22;6146;48.128;11.476;2022-10-22T04:27:59;12.90;99.90
12166;DHT22;6146;48.128;11.476;2022-10-22T04:30:26;12.80;99.90
12166;DHT22;6146;48.128;11.476;2022-10-22T04:32:51;12.80;99.90
12166;DHT22;6146;48.128;11.476;2022-10-22T04:35:17;12.70;99.90
12166;DHT22;6146;48.128;11.476;2022-10-22T04:37:42;12.70;99.90
12166;DHT22;6146;48.128;11.476;2022-10-22T04:40:08;12.70;99.90
12166;DHT22;6146;48.128;11.476;2022-10-22T04:42:34;12.70;99.90
12166;DHT22;6146;48.128;11.476;2022-10-22T04:45:00;12.70;99.90
12166;DHT22;6146;48.128;11.476;2022-10-22T04:47:25;12.70;99.90
12166;DHT22;6146;48.128;11.476;2022-10-22T04:49:51;12.70;99.90
12166;DHT22;6146;48.128;11.476;2022-10-22T04:52:16;12.70;99.90
12166;DHT22;6146;48.128;11.476;2022-10-22T04:54:42;12.60;99.90
12166;DHT22;6146;48.128;11.476;2022-10-22T04:57:07;12.60;99.90
12166;DHT22;6146;48.128;11.476;2022-10-22T04:59:33;12.60;99.90
12166;DHT22;6146;48.128;11.476;2022-10-22T05:01:59;12.60;99.90
12166;DHT22;6146;48.128;11.476;2022-10-22T05:04:24;12.60;99.90
12166;DHT22;6146;48.128;11.476;2022-10-22T05:06:50;12.60;99.90
12166;DHT22;6146;48.128;11.476;2022-10-22T05:09:17;12.50;99.90
12166;DHT22;6146;48.128;11.476;2022-10-22T05:11:46;12.50;99.90
12166;DHT22;6146;48.128;11.476;2022-10-22T05:14:23;12.60;99.90
12166;DHT22;6146;48.128;11.476;2022-10-22T05:16:50;12.50;99.90
12166;DHT22;6146;48.128;11.476;2022-10-22T05:19:22;12.40;99.90
12166;DHT22;6146;48.128;11.476;2022-10-22T05:21:49;12.40;99.90
12166;DHT22;6146;48.128;11.476;2022-10-22T05:24:14;12.40;99.90
12166;DHT22;6146;48.128;11.476;2022-10-22T05:26:40;12.40;99.90
12166;DHT22;6146;48.128;11.476;2022-10-22T05:29:06;12.30;99.90
12166;DHT22;6146;48.128;11.476;2022-10-22T05:31:31;12.30;99.90
12166;DHT22;6146;48.128;11.476;2022-10-22T05:33:57;12.30;99.90
12166;DHT22;6146;48.128;11.476;2022-10-22T05:36:22;12.30;99.90
12166;DHT22;6146;48.128;11.476;2022-10-22T05:38:49;12.30;99.90
12166;DHT22;6146;48.128;11.476;2022-10-22T05:41:17;12.30;99.90
12166;DHT22;6146;48.128;11.476;2022-10-22T05:43:43;12.30;99.90
12166;DHT22;6146;48.128;11.476;2022-10-22T05:46:11;12.30;99.90
12166;DHT22;6146;48.128;11.476;2022-10-22T05:48:37;12.30;99.90
12166;DHT22;6146;48.128;11.476;2022-10-22T05:51:08;12.30;99.90
12166;DHT22;6146;48.128;11.476;2022-10-22T05:53:35;12.40;99.90
12166;DHT22;6146;48.128;11.476;2022-10-22T05:56:03;12.40;99.90
12166;DHT22;6146;48.128;11.476;2022-10-22T05:58:29;12.40;99.90
12166;DHT22;6146;48.128;11.476;2022-10-22T06:01:00;12.50;99.90
12166;DHT22;6146;48.128;11.476;2022-10-22T06:03:26;12.40;99.90
12166;DHT22;6146;48.128;11.476;2022-10-22T06:05:53;12.50;99.90
12166;DHT22;6146;48.128;11.476;2022-10-22T06:08:18;12.50;99.90
12166;DHT22;6146;48.128;11.476;2022-10-22T06:10:44;12.60;99.90
12166;DHT22;6146;48.128;11.476;2022-10-22T06:13:09;12.60;99.90
12166;DHT22;6146;48.128;11.476;2022-10-22T06:15:35;12.50;99.90
12166;DHT22;6146;48.128;11.476;2022-10-22T06:18:01;12.60;99.90
12166;DHT22;6146;48.128;11.476;2022-10-22T06:20:26;12.60;99.90
12166;DHT22;6146;48.128;11.476;2022-10-22T06:22:52;12.60;99.90
12166;DHT22;6146;48.128;11.476;2022-10-22T06:25:17;12.70;99.90
12166;DHT22;6146;48.128;11.476;2022-10-22T06:27:47;12.70;99.90
12166;DHT22;6146;48.128;11.476;2022-10-22T06:30:13;12.70;99.90
12166;DHT22;6146;48.128;11.476;2022-10-22T06:32:39;12.70;99.90
12166;DHT22;6146;48.128;11.476;2022-10-22T06:35:05;12.80;99.90
12166;DHT22;6146;48.128;11.476;2022-10-22T06:37:31;12.80;99.90
12166;DHT22;6146;48.128;11.476;2022-10-22T06:39:57;12.80;99.90
12166;DHT22;6146;48.128;11.476;2022-10-22T06:42:22;12.80;99.90
12166;DHT22;6146;48.128;11.476;2022-10-22T06:44:48;12.90;99.90
12166;DHT22;6146;48.128;11.476;2022-10-22T06:47:13;13.00;99.90
12166;DHT22;6146;48.128;11.476;2022-10-22T06:49:39;13.00;99.90
12166;DHT22;6146;48.128;11.476;2022-10-22T06:52:04;13.10;99.90
12166;DHT22;6146;48.128;11.476;2022-10-22T06:54:30;13.00;99.90
12166;DHT22;6146;48.128;11.476;2022-10-22T06:56:55;13.00;99.90
12166;DHT22;6146;48.128;11.476;2022-10-22T06:59:21;13.00;99.90
12166;DHT22;6146;48.128;11.476;2022-10-22T07:01:46;13.10;99.90
12166;DHT22;6146;48.128;11.476;2022-10-22T07:04:12;13.00;99.90
12166;DHT22;6146;48.128;11.476;2022-10-22T07:06:37;13.00;99.90
12166;DHT22;6146;48.128;11.476;2022-10-22T07:09:03;13.00;99.90
12166;DHT22;6146;48.128;11.476;2022-10-22T07:11:39;13.00;99.90
12166;DHT22;6146;48.128;11.476;2022-10-22T07:14:05;13.10;99.90
12166;DHT22;6146;48.128;11.476;2022-10-22T07:16:30;13.10;99.90
12166;DHT22;6146;48.128;11.476;2022-10-22T07:18:56;13.20;99.90
12166;DHT22;6146;48.128;11.476;2022-10-22T07:21:21;13.10;99.90
12166;DHT22;6146;48.128;11.476;2022-10-22T07:23:47;13.20;99.90
12166;DHT22;6146;48.128;11.476;2022-10-22T07:26:14;13.20;99.90
12166;DHT22;6146;48.128;11.476;2022-10-22T07:28:40;13.30;99.90
12166;DHT22;6146;48.128;11.476;2022-10-22T07:31:08;13.30;99.90
12166;DHT22;6146;48.128;11.476;2022-10-22T07:33:34;13.40;99.90
12166;DHT22;6146;48.128;11.476;2022-10-22T07:36:01;13.50;99.90
12166;DHT22;6146;48.128;11.476;2022-10-22T07:38:27;13.60;99.90
12166;DHT22;6146;48.128;11.476;2022-10-22T07:40:54;13.60;99.90
12166;DHT22;6146;48.128;11.476;2022-10-22T07:43:20;13.70;99.90
12166;DHT22;6146;48.128;11.476;2022-10-22T07:45:45;13.80;99.90
12166;DHT22;6146;48.128;11.476;2022-10-22T07:48:11;13.90;99.90
12166;DHT22;6146;48.128;11.476;2022-10-22T07:50:36;14.10;99.90
12166;DHT22;6146;48.128;11.476;2022-10-22T07:53:02;14.20;99.90
12166;DHT22;6146;48.128;11.476;2022-10-22T07:55:28;14.40;99.90
12166;DHT22;6146;48.128;11.476;2022-10-22T07:57:53;14.60;99.90
12166;DHT22;6146;48.128;11.476;2022-10-22T08:00:19;14.70;99.90
12166;DHT22;6146;48.128;11.476;2022-10-22T08:02:45;14.90;99.90
12166;DHT22;6146;48.128;11.476;2022-10-22T08:05:11;15.10;99.90
12166;DHT22;6146;48.128;11.476;2022-10-22T08:07:38;15.20;99.90
12166;DHT22;6146;48.128;11.476;2022-10-22T08:10:05;15.20;99.90
12166;DHT22;6146;48.128;11.476;2022-10-22T08:12:31;15.20;99.90
12166;DHT22;6146;48.128;11.476;2022-10-22T08:14:56;15.00;99.90
12166;DHT22;6146;48.128;11.476;2022-10-22T08:17:22;14.90;99.90
12166;DHT22;6146;48.128;11.476;2022-10-22T08:19:47;14.90;99.90
12166;DHT22;6146;48.128;11.476;2022-10-22T08:22:13;14.90;99.90
12166;DHT22;6146;48.128;11.476;2022-10-22T08:24:38;15.00;99.90
12166;DHT22;6146;48.128;11.476;2022-10-22T08:27:04;14.90;99.90
12166;DHT22;6146;48.128;11.476;2022-10-22T08:29:30;15.00;99.90
12166;DHT22;6146;48.128;11.476;2022-10-22T08:31:55;15.00;99.90
12166;DHT22;6146;48.128;11.476;2022-10-22T08:34:21;15.10;99.90
12166;DHT22;6146;48.128;11.476;2022-10-22T08:36:46;15.10;99.90
12166;DHT22;6146;48.128;11.476;2022-10-22T08:39:12;15.10;99.90
12166;DHT22;6146;48.128;11.476;2022-10-22T08:47:32;15.10;99.90
12166;DHT22;6146;48.128;11.476;2022-10-22T08:50:03;15.20;99.90
12166;DHT22;6146;48.128;11.476;2022-10-22T08:52:30;15.20;99.90
12166;DHT22;6146;48.128;11.476;2022-10-22T08:54:58;15.30;99.90
12166;DHT22;6146;48.128;11.476;2022-10-22T08:57:36;15.40;99.90
12166;DHT22;6146;48.128;11.476;2022-10-22T09:00:08;15.50;99.90
12166;DHT22;6146;48.128;11.476;2022-10-22T09:07:42;15.70;99.90
12166;DHT22;6146;48.128;11.476;2022-10-22T09:10:13;15.80;99.90
12166;DHT22;6146;48.128;11.476;2022-10-22T09:12:38;15.90;99.90
12166;DHT22;6146;48.128;11.476;2022-10-22T09:15:04;16.00;99.90
12166;DHT22;6146;48.128;11.476;2022-10-22T09:20:44;16.00;99.90
12166;DHT22;6146;48.128;11.476;2022-10-22T09:25:56;16.00;99.90
12166;DHT22;6146;48.128;11.476;2022-10-22T09:28:22;16.00;99.90
12166;DHT22;6146;48.128;11.476;2022-10-22T09:30:48;16.10;99.90
12166;DHT22;6146;48.128;11.476;2022-10-22T09:33:17;16.20;99.90
12166;DHT22;6146;48.128;11.476;2022-10-22T09:38:28;16.30;99.90
12166;DHT22;6146;48.128;11.476;2022-10-22T09:40:55;16.40;99.90
12166;DHT22;6146;48.128;11.476;2022-10-22T09:43:21;16.40;99.90
12166;DHT22;6146;48.128;11.476;2022-10-22T09:45:48;16.40;99.90
12166;DHT22;6146;48.128;11.476;2022-10-22T09:48:22;16.40;99.90
12166;DHT22;6146;48.128;11.476;2022-10-22T09:53:38;16.40;99.90
12166;DHT22;6146;48.128;11.476;2022-10-22T09:56:09;16.40;99.90
12166;DHT22;6146;48.128;11.476;2022-10-22T09:58:45;16.40;99.90
12166;DHT22;6146;48.128;11.476;2022-10-22T10:01:33;16.40;99.90
12166;DHT22;6146;48.128;11.476;2022-10-22T10:04:04;16.40;99.90
12166;DHT22;6146;48.128;11.476;2022-10-22T10:06:33;16.30;99.90
12166;DHT22;6146;48.128;11.476;2022-10-22T10:08:59;16.50;99.90
12166;DHT22;6146;48.128;11.476;2022-10-22T10:11:34;16.70;99.90
12166;DHT22;6146;48.128;11.476;2022-10-22T10:14:08;16.90;99.90
12166;DHT22;6146;48.128;11.476;2022-10-22T10:16:58;17.00;99.90
12166;DHT22;6146;48.128;11.476;2022-10-22T10:22:40;17.00;99.90
12166;DHT22;6146;48.128;11.476;2022-10-22T10:25:31;17.20;99.90
12166;DHT22;6146;48.128;11.476;2022-10-22T10:30:56;18.80;99.90
12166;DHT22;6146;48.128;11.476;2022-10-22T10:33:55;19.90;99.90
12166;DHT22;6146;48.128;11.476;2022-10-22T10:37:00;20.90;99.90
12166;DHT22;6146;48.128;11.476;2022-10-22T10:42:28;22.10;99.90
12166;DHT22;6146;48.128;11.476;2022-10-22T10:45:29;22.60;99.90
12166;DHT22;6146;48.128;11.476;2022-10-22T10:47:55;23.70;99.90
12166;DHT22;6146;48.128;11.476;2022-10-22T10:53:13;25.20;99.90
12166;DHT22;6146;48.128;11.476;2022-10-22T10:58:33;25.50;99.90
12166;DHT22;6146;48.128;11.476;2022-10-22T11:06:24;25.80;99.90
12166;DHT22;6146;48.128;11.476;2022-10-22T11:08:58;26.20;99.90
12166;DHT22;6146;48.128;11.476;2022-10-22T11:11:33;26.60;97.80
12166;DHT22;6146;48.128;11.476;2022-10-22T11:14:23;26.90;97.40
12166;DHT22;6146;48.128;11.476;2022-10-22T11:16:55;27.40;94.50
12166;DHT22;6146;48.128;11.476;2022-10-22T11:19:38;28.10;93.80
12166;DHT22;6146;48.128;11.476;2022-10-22T11:25:00;30.30;89.80
12166;DHT22;6146;48.128;11.476;2022-10-22T11:30:14;28.80;86.10
12166;DHT22;6146;48.128;11.476;2022-10-22T11:32:41;28.10;84.30
12166;DHT22;6146;48.128;11.476;2022-10-22T11:35:15;27.40;87.90
12166;DHT22;6146;48.128;11.476;2022-10-22T11:37:43;28.10;82.80
12166;DHT22;6146;48.128;11.476;2022-10-22T11:40:19;27.90;83.60
12166;DHT22;6146;48.128;11.476;2022-10-22T11:42:53;27.40;83.70
12166;DHT22;6146;48.128;11.476;2022-10-22T11:50:27;25.30;92.10
12166;DHT22;6146;48.128;11.476;2022-10-22T11:53:02;24.70;91.90
12166;DHT22;6146;48.128;11.476;2022-10-22T11:55:47;23.80;94.00
12166;DHT22;6146;48.128;11.476;2022-10-22T11:58:49;23.20;95.60
12166;DHT22;6146;48.128;11.476;2022-10-22T12:01:23;22.40;96.70
12166;DHT22;6146;48.128;11.476;2022-10-22T12:06:23;21.20;99.90
12166;DHT22;6146;48.128;11.476;2022-10-22T12:14:00;20.20;99.90
12166;DHT22;6146;48.128;11.476;2022-10-22T12:21:37;20.20;99.90
12166;DHT22;6146;48.128;11.476;2022-10-22T12:24:04;21.60;99.90
12166;DHT22;6146;48.128;11.476;2022-10-22T12:26:31;21.90;99.90
12166;DHT22;6146;48.128;11.476;2022-10-22T12:29:00;23.10;99.90
12166;DHT22;6146;48.128;11.476;2022-10-22T12:31:26;23.60;98.80
12166;DHT22;6146;48.128;11.476;2022-10-22T12:33:59;22.90;99.70
12166;DHT22;6146;48.128;11.476;2022-10-22T12:36:26;22.30;99.90
12166;DHT22;6146;48.128;11.476;2022-10-22T12:38:52;22.00;99.90
12166;DHT22;6146;48.128;11.476;2022-10-22T12:41:18;22.20;99.90
12166;DHT22;6146;48.128;11.476;2022-10-22T12:43:44;23.20;99.70
12166;DHT22;6146;48.128;11.476;2022-10-22T12:46:12;23.40;99.00
12166;DHT22;6146;48.128;11.476;2022-10-22T12:48:44;22.80;99.00
12166;DHT22;6146;48.128;11.476;2022-10-22T12:51:18;22.10;99.90
12166;DHT22;6146;48.128;11.476;2022-10-22T12:53:56;21.70;99.90
12166;DHT22;6146;48.128;11.476;2022-10-22T12:56:25;21.40;99.90
12166;DHT22;6146;48.128;11.476;2022-10-22T12:58:58;20.50;99.90
12166;DHT22;6146;48.128;11.476;2022-10-22T13:01:26;20.20;99.90
12166;DHT22;6146;48.128;11.476;2022-10-22T13:06:36;19.70;99.90
12166;DHT22;6146;48.128;11.476;2022-10-22T13:09:11;19.40;99.90
12166;DHT22;6146;48.128;11.476;2022-10-22T13:11:39;19.60;99.90
12166;DHT22;6146;48.128;11.476;2022-10-22T13:14:18;19.80;99.90
12166;DHT22;6146;48.128;11.476;2022-10-22T13:17:27;20.40;99.90
12166;DHT22;6146;48.128;11.476;2022-10-22T13:20:03;20.90;99.90
12166;DHT22;6146;48.128;11.476;2022-10-22T13:22:40;22.60;99.90
12166;DHT22;6146;48.128;11.476;2022-10-22T13:27:49;23.80;98.30
12166;DHT22;6146;48.128;11.476;2022-10-22T13:32:51;22.00;99.90
12166;DHT22;6146;48.128;11.476;2022-10-22T13:35:19;21.30;99.90
12166;DHT22;6146;48.128;11.476;2022-10-22T13:37:45;21.10;99.90
12166;DHT22;6146;48.128;11.476;2022-10-22T13:40:12;21.10;99.90
12166;DHT22;6146;48.128;11.476;2022-10-22T13:42:38;21.00;99.90
12166;DHT22;6146;48.128;11.476;2022-10-22T13:45:04;20.70;99.90
12166;DHT22;6146;48.128;11.476;2022-10-22T13:47:30;20.50;99.90
12166;DHT22;6146;48.128;11.476;2022-10-22T13:50:02;20.60;99.90
12166;DHT22;6146;48.128;11.476;2022-10-22T13:52:37;20.50;99.90
12166;DHT22;6146;48.128;11.476;2022-10-22T13:55:21;20.50;99.90
12166;DHT22;6146;48.128;11.476;2022-10-22T13:57:50;20.10;99.90
12166;DHT22;6146;48.128;11.476;2022-10-22T14:00:19;19.80;99.90
12166;DHT22;6146;48.128;11.476;2022-10-22T14:02:46;19.60;99.90
12166;DHT22;6146;48.128;11.476;2022-10-22T14:05:13;19.50;99.90
12166;DHT22;6146;48.128;11.476;2022-10-22T14:07:39;19.40;99.90
12166;DHT22;6146;48.128;11.476;2022-10-22T14:10:15;19.20;99.90
12166;DHT22;6146;48.128;11.476;2022-10-22T14:12:41;19.20;99.90
12166;DHT22;6146;48.128;11.476;2022-10-22T14:15:08;19.20;99.90
12166;DHT22;6146;48.128;11.476;2022-10-22T14:17:33;19.30;99.90
12166;DHT22;6146;48.128;11.476;2022-10-22T14:19:59;19.20;99.90
12166;DHT22;6146;48.128;11.476;2022-10-22T14:22:26;19.40;99.90
12166;DHT22;6146;48.128;11.476;2022-10-22T14:24:52;19.40;99.90
12166;DHT22;6146;48.128;11.476;2022-10-22T14:27:18;19.40;99.90
12166;DHT22;6146;48.128;11.476;2022-10-22T14:29:44;19.40;99.90
12166;DHT22;6146;48.128;11.476;2022-10-22T14:32:12;19.40;99.90
12166;DHT22;6146;48.128;11.476;2022-10-22T14:34:38;19.30;99.90
12166;DHT22;6146;48.128;11.476;2022-10-22T14:37:04;19.20;99.90
12166;DHT22;6146;48.128;11.476;2022-10-22T14:39:30;19.20;99.90
12166;DHT22;6146;48.128;11.476;2022-10-22T14:41:55;19.30;99.90
12166;DHT22;6146;48.128;11.476;2022-10-22T14:44:21;19.20;99.90
12166;DHT22;6146;48.128;11.476;2022-10-22T14:46:48;19.20;99.90
12166;DHT22;6146;48.128;11.476;2022-10-22T14:49:14;19.00;99.90
12166;DHT22;6146;48.128;11.476;2022-10-22T14:51:39;18.80;99.90
12166;DHT22;6146;48.128;11.476;2022-10-22T14:54:05;18.80;99.90
12166;DHT22;6146;48.128;11.476;2022-10-22T14:56:30;18.60;99.90
12166;DHT22;6146;48.128;11.476;2022-10-22T14:58:56;18.60;99.90
12166;DHT22;6146;48.128;11.476;2022-10-22T15:01:21;18.50;99.90
12166;DHT22;6146;48.128;11.476;2022-10-22T15:03:47;18.50;99.90
12166;DHT22;6146;48.128;11.476;2022-10-22T15:06:12;18.40;99.90
12166;DHT22;6146;48.128;11.476;2022-10-22T15:08:38;18.30;99.90
12166;DHT22;6146;48.128;11.476;2022-10-22T15:11:06;18.30;99.90
12166;DHT22;6146;48.128;11.476;2022-10-22T15:13:32;18.20;99.90
12166;DHT22;6146;48.128;11.476;2022-10-22T15:15:59;18.10;99.90
12166;DHT22;6146;48.128;11.476;2022-10-22T15:18:25;18.10;99.90
12166;DHT22;6146;48.128;11.476;2022-10-22T15:21:01;18.00;99.90
12166;DHT22;6146;48.128;11.476;2022-10-22T15:23:27;17.90;99.90
12166;DHT22;6146;48.128;11.476;2022-10-22T15:25:53;17.90;99.90
12166;DHT22;6146;48.128;11.476;2022-10-22T15:28:18;17.90;99.90
12166;DHT22;6146;48.128;11.476;2022-10-22T15:30:50;17.80;99.90
12166;DHT22;6146;48.128;11.476;2022-10-22T15:33:15;17.80;99.90
12166;DHT22;6146;48.128;11.476;2022-10-22T15:35:41;17.70;99.90
12166;DHT22;6146;48.128;11.476;2022-10-22T15:38:06;17.60;99.90
12166;DHT22;6146;48.128;11.476;2022-10-22T15:40:33;17.60;99.90
12166;DHT22;6146;48.128;11.476;2022-10-22T15:42:59;17.50;99.90
12166;DHT22;6146;48.128;11.476;2022-10-22T15:45:24;17.40;99.90
12166;DHT22;6146;48.128;11.476;2022-10-22T15:47:50;17.30;99.90
12166;DHT22;6146;48.128;11.476;2022-10-22T15:50:16;17.20;99.90
12166;DHT22;6146;48.128;11.476;2022-10-22T15:52:41;17.10;99.90
12166;DHT22;6146;48.128;11.476;2022-10-22T15:55:07;17.00;99.90
12166;DHT22;6146;48.128;11.476;2022-10-22T15:57:35;16.90;99.90
12166;DHT22;6146;48.128;11.476;2022-10-22T16:00:01;16.80;99.90
12166;DHT22;6146;48.128;11.476;2022-10-22T16:02:26;16.70;99.90
12166;DHT22;6146;48.128;11.476;2022-10-22T16:04:52;16.60;99.90
12166;DHT22;6146;48.128;11.476;2022-10-22T16:07:17;16.50;99.90
12166;DHT22;6146;48.128;11.476;2022-10-22T16:09:43;16.30;99.90
12166;DHT22;6146;48.128;11.476;2022-10-22T16:12:09;16.20;99.90
12166;DHT22;6146;48.128;11.476;2022-10-22T16:14:34;16.10;99.90
12166;DHT22;6146;48.128;11.476;2022-10-22T16:17:00;16.00;99.90
12166;DHT22;6146;48.128;11.476;2022-10-22T16:19:26;15.80;99.90
12166;DHT22;6146;48.128;11.476;2022-10-22T16:21:53;15.80;99.90
12166;DHT22;6146;48.128;11.476;2022-10-22T16:24:20;15.50;99.90
12166;DHT22;6146;48.128;11.476;2022-10-22T16:26:47;15.40;99.90
12166;DHT22;6146;48.128;11.476;2022-10-22T16:29:13;15.20;99.90
12166;DHT22;6146;48.128;11.476;2022-10-22T16:31:39;15.10;99.90
12166;DHT22;6146;48.128;11.476;2022-10-22T16:34:07;15.00;99.90
12166;DHT22;6146;48.128;11.476;2022-10-22T16:36:32;14.90;99.90
12166;DHT22;6146;48.128;11.476;2022-10-22T16:38:58;14.80;99.90
12166;DHT22;6146;48.128;11.476;2022-10-22T16:41:24;14.70;99.90
12166;DHT22;6146;48.128;11.476;2022-10-22T16:43:52;14.60;99.90
12166;DHT22;6146;48.128;11.476;2022-10-22T16:46:20;14.60;99.90
12166;DHT22;6146;48.128;11.476;2022-10-22T16:48:48;14.60;99.90
12166;DHT22;6146;48.128;11.476;2022-10-22T16:51:16;14.50;99.90
12166;DHT22;6146;48.128;11.476;2022-10-22T16:53:42;14.40;99.90
12166;DHT22;6146;48.128;11.476;2022-10-22T16:56:12;14.50;99.90
12166;DHT22;6146;48.128;11.476;2022-10-22T16:58:43;14.40;99.90
12166;DHT22;6146;48.128;11.476;2022-10-22T17:01:09;14.40;99.90
12166;DHT22;6146;48.128;11.476;2022-10-22T17:03:35;14.30;99.90
12166;DHT22;6146;48.128;11.476;2022-10-22T17:06:02;14.20;99.90
12166;DHT22;6146;48.128;11.476;2022-10-22T17:08:29;14.20;99.90
12166;DHT22;6146;48.128;11.476;2022-10-22T17:10:55;14.10;99.90
12166;DHT22;6146;48.128;11.476;2022-10-22T17:13:20;14.10;99.90